Time;durP1;ratioP1;P1;durP2;ratioP2;P2;SDS_P1;SDS_P2;PMS_P1;PMS_P2;Temp;Humidity;BMP_temperature;BMP_pressure;BME280_temperature;BME280_humidity;BME280_pressure;Samples;Min_cycle;Max_cycle;Signal;HPM_P1;HPM_P2
2022/05/21 00:01:19;;;;;;;14.70;8.50;;;14.60;98.70;;;;;;5053320;28;20469;-74
2022/05/21 00:03:45;;;;;;;13.00;8.82;;;14.60;98.70;;;;;;5053026;28;20156;-74
2022/05/21 00:06:10;;;;;;;15.23;9.20;;;14.60;98.60;;;;;;5053070;28;20039;-74
2022/05/21 00:08:36;;;;;;;18.75;9.40;;;14.60;98.60;;;;;;5053142;28;20021;-74
2022/05/21 00:11:03;;;;;;;12.88;8.55;;;14.60;98.60;;;;;;5053115;28;20538;-74
2022/05/21 00:13:29;;;;;;;14.60;9.32;;;14.60;98.70;;;;;;5052811;28;20029;-74
2022/05/21 00:15:54;;;;;;;12.60;8.52;;;14.60;98.80;;;;;;5053417;28;20021;-74
2022/05/21 00:18:20;;;;;;;12.27;8.82;;;14.50;98.80;;;;;;5053196;28;20377;-74
2022/05/21 00:20:49;;;;;;;13.82;9.25;;;14.60;99.00;;;;;;5053004;28;20025;-73
2022/05/21 00:23:28;;;;;;;11.15;9.50;;;14.60;98.70;;;;;;5053014;28;20028;-74
2022/05/21 00:26:00;;;;;;;12.77;8.55;;;14.60;98.50;;;;;;5053056;28;20025;-74
2022/05/21 00:28:26;;;;;;;10.90;7.78;;;14.60;98.40;;;;;;5057416;28;20069;-74
2022/05/21 00:30:52;;;;;;;15.65;9.15;;;14.50;98.40;;;;;;5057323;28;20031;-74
2022/05/21 00:33:18;;;;;;;12.93;9.68;;;14.50;98.50;;;;;;5057059;28;20103;-74
2022/05/21 00:35:44;;;;;;;11.73;8.93;;;14.50;98.60;;;;;;5057345;28;20017;-74
2022/05/21 00:38:10;;;;;;;13.90;8.95;;;14.50;98.90;;;;;;5056667;28;20075;-74
2022/05/21 00:40:37;;;;;;;16.27;10.20;;;14.50;98.70;;;;;;5057279;28;20057;-74
2022/05/21 00:43:03;;;;;;;13.20;9.40;;;14.60;98.80;;;;;;5056879;28;20452;-74
2022/05/21 00:45:30;;;;;;;12.13;9.15;;;14.50;98.90;;;;;;5056997;28;20086;-74
2022/05/21 00:47:55;;;;;;;12.07;9.80;;;14.60;99.00;;;;;;5056511;28;20408;-74
2022/05/21 00:50:28;;;;;;;17.77;9.88;;;14.60;99.00;;;;;;5056657;28;20029;-75
2022/05/21 00:52:53;;;;;;;13.48;9.48;;;14.60;98.90;;;;;;5057024;28;20025;-74
2022/05/21 00:55:27;;;;;;;16.02;10.32;;;14.60;98.90;;;;;;5056511;28;20032;-75
2022/05/21 01:00:48;;;;;;;14.15;10.68;;;14.70;98.70;;;;;;5056706;28;20572;-75
2022/05/21 01:03:15;;;;;;;17.33;10.52;;;14.70;98.60;;;;;;5056793;28;20132;-74
2022/05/21 01:05:45;;;;;;;13.13;10.90;;;14.70;98.60;;;;;;5056198;28;20472;-74
2022/05/21 01:08:11;;;;;;;15.85;11.10;;;14.70;98.50;;;;;;5056321;28;20029;-74
2022/05/21 01:10:40;;;;;;;18.33;11.80;;;14.80;98.60;;;;;;5056597;28;20032;-74
2022/05/21 01:13:10;;;;;;;13.48;10.75;;;14.80;98.40;;;;;;5056515;28;20029;-74
2022/05/21 01:15:45;;;;;;;15.35;11.90;;;14.70;98.40;;;;;;5056493;28;20396;-74
2022/05/21 01:18:11;;;;;;;17.73;12.00;;;14.60;98.40;;;;;;5056252;28;20051;-74
2022/05/21 01:20:38;;;;;;;20.65;12.70;;;14.70;98.60;;;;;;5056455;28;20025;-74
2022/05/21 01:23:04;;;;;;;14.57;11.90;;;14.60;98.60;;;;;;5056612;28;20052;-74
2022/05/21 01:25:31;;;;;;;16.20;11.70;;;14.60;98.70;;;;;;5056221;28;20032;-75
2022/05/21 01:27:58;;;;;;;15.43;11.07;;;14.60;98.80;;;;;;5055998;28;20427;-75
2022/05/21 01:30:29;;;;;;;16.13;11.63;;;14.60;99.00;;;;;;5056255;28;20100;-75
2022/05/21 01:32:55;;;;;;;15.48;12.10;;;14.60;99.00;;;;;;5056183;28;20025;-74
2022/05/21 01:35:21;;;;;;;17.65;11.82;;;14.60;98.90;;;;;;5055770;28;20100;-75
2022/05/21 01:37:47;;;;;;;19.35;12.48;;;14.60;98.90;;;;;;5054596;28;20431;-75
2022/05/21 01:40:14;;;;;;;21.58;12.63;;;14.50;98.90;;;;;;5055905;28;20376;-74
2022/05/21 01:42:40;;;;;;;17.35;11.60;;;14.50;99.00;;;;;;5056118;28;20036;-75
2022/05/21 01:45:07;;;;;;;15.90;11.68;;;14.50;99.10;;;;;;5055574;28;20475;-75
2022/05/21 01:47:34;;;;;;;16.60;11.32;;;14.50;99.30;;;;;;5055628;28;20041;-74
2022/05/21 01:50:00;;;;;;;19.23;11.73;;;14.50;99.10;;;;;;5055591;28;20510;-74
2022/05/21 01:52:26;;;;;;;16.27;11.43;;;14.50;99.10;;;;;;5055787;28;20227;-75
2022/05/21 01:54:52;;;;;;;17.05;11.15;;;14.50;99.20;;;;;;5055215;28;20082;-75
2022/05/21 01:57:18;;;;;;;15.55;10.88;;;14.50;99.30;;;;;;5055688;28;20040;-74
2022/05/21 01:59:43;;;;;;;17.02;11.15;;;14.50;99.40;;;;;;5055663;28;20025;-74
2022/05/21 02:02:10;;;;;;;17.88;11.55;;;14.50;99.30;;;;;;5055521;28;20381;-74
2022/05/21 02:04:36;;;;;;;16.88;11.68;;;14.50;99.40;;;;;;5055057;28;20064;-74
2022/05/21 02:07:02;;;;;;;20.42;11.57;;;14.50;99.50;;;;;;5055497;28;20020;-75
2022/05/21 02:09:28;;;;;;;14.77;11.00;;;14.50;99.50;;;;;;5055205;28;20077;-74
2022/05/21 02:11:54;;;;;;;18.08;11.25;;;14.50;99.30;;;;;;5055219;28;20028;-74
2022/05/21 02:14:20;;;;;;;19.70;11.52;;;14.50;99.50;;;;;;5055355;28;20025;-75
2022/05/21 02:16:45;;;;;;;16.35;10.13;;;14.50;99.40;;;;;;5055065;28;20067;-75
2022/05/21 02:19:11;;;;;;;15.65;10.70;;;14.50;99.50;;;;;;5055015;28;20027;-74
2022/05/21 02:21:40;;;;;;;16.90;11.13;;;14.50;99.50;;;;;;5055281;28;20025;-74
2022/05/21 02:24:08;;;;;;;18.33;11.23;;;14.60;99.50;;;;;;5055201;28;20112;-74
2022/05/21 02:26:38;;;;;;;17.50;11.13;;;14.60;99.50;;;;;;5055223;28;20029;-75
2022/05/21 02:29:04;;;;;;;18.60;10.68;;;14.60;99.50;;;;;;5054974;28;20021;-75
2022/05/21 02:31:30;;;;;;;21.30;11.63;;;14.60;99.50;;;;;;5054872;28;20032;-75
2022/05/21 02:33:55;;;;;;;21.52;11.23;;;14.50;99.40;;;;;;5054775;28;20021;-74
2022/05/21 02:39:25;;;;;;;17.67;11.25;;;14.50;99.60;;;;;;5054712;28;20017;-75
2022/05/21 02:41:50;;;;;;;17.02;11.02;;;14.50;99.80;;;;;;5054494;28;20392;-75
2022/05/21 02:44:16;;;;;;;21.83;12.25;;;14.50;99.90;;;;;;5054825;28;20029;-74
2022/05/21 02:46:42;;;;;;;15.25;11.27;;;14.50;99.80;;;;;;5054170;28;20052;-74
2022/05/21 02:49:07;;;;;;;18.60;11.02;;;14.40;99.90;;;;;;5054364;28;20032;-74
2022/05/21 02:51:33;;;;;;;19.50;11.50;;;14.40;99.90;;;;;;5054732;28;20480;-74
2022/05/21 02:53:58;;;;;;;17.98;10.90;;;14.40;99.90;;;;;;5054201;28;20024;-74
2022/05/21 02:56:24;;;;;;;17.15;11.30;;;14.30;99.90;;;;;;5054617;28;20109;-74
2022/05/21 02:58:50;;;;;;;21.20;11.07;;;14.40;99.90;;;;;;5054296;28;20350;-74
2022/05/21 03:01:15;;;;;;;20.45;11.85;;;14.40;99.90;;;;;;5054410;28;20108;-74
2022/05/21 03:03:41;;;;;;;19.73;11.05;;;14.50;99.90;;;;;;5054389;28;20018;-74
2022/05/21 03:06:06;;;;;;;19.48;10.80;;;14.50;99.90;;;;;;5054076;28;20397;-74
2022/05/21 03:11:17;;;;;;;19.17;11.27;;;14.50;99.90;;;;;;5054213;28;20044;-74
2022/05/21 03:13:42;;;;;;;18.27;11.70;;;14.50;99.90;;;;;;5053724;28;20025;-75
2022/05/21 03:16:08;;;;;;;16.60;10.32;;;14.50;99.90;;;;;;5054005;28;20029;-74
2022/05/21 03:18:36;;;;;;;18.02;10.80;;;14.50;99.90;;;;;;5054183;28;20017;-74
2022/05/21 03:21:01;;;;;;;18.73;10.02;;;14.50;99.90;;;;;;5054232;28;20032;-74
2022/05/21 03:23:27;;;;;;;20.77;11.27;;;14.60;99.90;;;;;;5053783;28;20075;-74
2022/05/21 03:25:54;;;;;;;20.77;11.27;;;14.60;99.90;;;;;;5053643;28;20027;-74
2022/05/21 03:28:20;;;;;;;14.80;9.65;;;14.60;99.90;;;;;;5053932;28;20026;-74
2022/05/21 03:30:47;;;;;;;20.27;10.88;;;14.70;99.90;;;;;;5053929;28;20032;-74
2022/05/21 03:33:13;;;;;;;20.83;10.60;;;14.60;99.90;;;;;;5053859;28;20024;-74
2022/05/21 03:35:41;;;;;;;17.73;10.85;;;14.70;99.90;;;;;;5053586;28;20032;-74
2022/05/21 03:38:07;;;;;;;20.83;10.35;;;14.60;99.90;;;;;;5053598;28;20488;-74
2022/05/21 03:40:33;;;;;;;21.75;10.68;;;14.50;99.90;;;;;;5053520;28;20025;-74
2022/05/21 03:42:59;;;;;;;17.63;10.85;;;14.50;99.90;;;;;;5053322;28;20491;-74
2022/05/21 03:45:27;;;;;;;20.30;12.02;;;14.50;99.90;;;;;;5053705;28;20029;-74
2022/05/21 03:47:52;;;;;;;16.95;11.40;;;14.50;99.90;;;;;;5053329;28;20072;-74
2022/05/21 03:50:22;;;;;;;20.45;11.25;;;14.50;99.90;;;;;;5053398;28;20057;-74
2022/05/21 03:52:47;;;;;;;22.00;10.93;;;14.50;99.90;;;;;;5053043;28;20033;-75
2022/05/21 03:55:13;;;;;;;22.17;11.25;;;14.50;99.90;;;;;;5053289;28;20021;-74
2022/05/21 03:57:39;;;;;;;19.30;11.40;;;14.50;99.90;;;;;;5053513;28;20044;-75
2022/05/21 04:00:10;;;;;;;17.85;10.40;;;14.50;99.90;;;;;;5053263;28;20029;-74
2022/05/21 04:02:37;;;;;;;19.50;9.77;;;14.40;99.90;;;;;;5052884;28;20100;-75
2022/05/21 04:05:04;;;;;;;22.95;10.90;;;14.50;99.90;;;;;;5053183;28;20456;-74
2022/05/21 04:07:30;;;;;;;19.75;10.52;;;14.60;99.90;;;;;;5053187;28;20146;-74
2022/05/21 04:09:55;;;;;;;20.20;10.57;;;14.60;99.90;;;;;;5053346;28;20021;-75
2022/05/21 04:12:21;;;;;;;24.25;10.32;;;14.50;99.90;;;;;;5053133;28;20025;-74
2022/05/21 04:14:46;;;;;;;21.75;10.40;;;14.50;99.90;;;;;;5053412;28;20028;-74
2022/05/21 04:17:13;;;;;;;19.88;10.18;;;14.50;99.90;;;;;;5053045;28;20487;-74
2022/05/21 04:19:40;;;;;;;25.13;11.23;;;14.50;99.90;;;;;;5053161;28;20036;-74
2022/05/21 04:22:06;;;;;;;22.92;10.45;;;14.60;99.90;;;;;;5053158;28;20388;-74
2022/05/21 04:24:32;;;;;;;21.08;9.00;;;14.60;99.90;;;;;;5052835;28;20469;-74
2022/05/21 04:26:57;;;;;;;21.02;9.60;;;14.70;99.90;;;;;;5053314;28;20025;-74
2022/05/21 04:29:23;;;;;;;18.23;9.55;;;14.70;99.90;;;;;;5053274;28;20021;-74
2022/05/21 04:31:49;;;;;;;25.33;9.50;;;14.70;99.90;;;;;;5052879;28;20396;-74
2022/05/21 04:34:15;;;;;;;27.08;9.80;;;14.70;99.90;;;;;;5052933;28;20479;-74
2022/05/21 04:36:41;;;;;;;19.85;8.77;;;14.70;99.90;;;;;;5053289;28;20044;-74
2022/05/21 04:39:07;;;;;;;20.05;9.18;;;14.70;99.90;;;;;;5052935;28;20100;-75
2022/05/21 04:41:33;;;;;;;25.58;8.70;;;14.70;99.90;;;;;;5052893;28;20025;-74
2022/05/21 04:43:59;;;;;;;21.85;8.57;;;14.70;99.90;;;;;;5052770;28;20396;-75
2022/05/21 04:46:25;;;;;;;19.70;8.88;;;14.80;99.90;;;;;;5052495;28;20487;-74
2022/05/21 04:48:51;;;;;;;22.77;9.05;;;14.70;99.90;;;;;;5052990;28;20116;-74
2022/05/21 04:51:18;;;;;;;25.27;9.13;;;14.70;99.90;;;;;;5052753;28;20029;-75
2022/05/21 04:53:43;;;;;;;23.63;9.65;;;14.70;99.90;;;;;;5052453;28;20025;-74
2022/05/21 04:56:09;;;;;;;19.55;8.60;;;14.80;99.90;;;;;;5052954;28;20017;-75
2022/05/21 04:58:35;;;;;;;18.17;8.00;;;14.70;99.90;;;;;;5052985;28;20032;-74
2022/05/21 05:01:04;;;;;;;28.13;9.35;;;14.80;99.90;;;;;;5052803;28;20092;-74
2022/05/21 05:03:29;;;;;;;29.05;8.98;;;14.80;99.90;;;;;;5052282;28;20083;-74
2022/05/21 05:05:55;;;;;;;25.02;8.45;;;14.80;99.90;;;;;;5052567;28;20033;-74
2022/05/21 05:08:22;;;;;;;19.80;8.35;;;14.80;99.90;;;;;;5052373;28;20075;-74
2022/05/21 05:10:48;;;;;;;24.52;8.90;;;14.80;99.90;;;;;;5052787;28;20112;-74
2022/05/21 05:13:15;;;;;;;22.00;8.25;;;14.80;99.90;;;;;;5054706;28;20048;-74
2022/05/21 05:15:44;;;;;;;21.95;7.13;;;14.70;99.90;;;;;;5056149;28;20440;-74
2022/05/21 05:18:12;;;;;;;21.65;7.20;;;14.70;99.90;;;;;;5056460;28;20087;-74
2022/05/21 05:20:38;;;;;;;22.38;6.65;;;14.60;99.90;;;;;;5056207;28;20453;-74
2022/05/21 05:23:05;;;;;;;26.63;7.53;;;14.60;99.90;;;;;;5055992;28;20025;-74
2022/05/21 05:25:32;;;;;;;18.80;6.30;;;14.70;99.90;;;;;;5056079;28;20033;-74
2022/05/21 05:27:57;;;;;;;18.27;6.00;;;14.70;99.90;;;;;;5056195;28;20029;-74
2022/05/21 05:30:24;;;;;;;19.55;5.93;;;14.70;99.90;;;;;;5056173;28;20078;-74
2022/05/21 05:32:50;;;;;;;24.67;6.30;;;14.70;99.90;;;;;;5055901;28;20083;-74
2022/05/21 05:35:15;;;;;;;24.25;7.22;;;14.70;99.90;;;;;;5055524;28;20021;-74
2022/05/21 05:37:42;;;;;;;28.05;6.80;;;14.80;99.90;;;;;;5055919;28;20108;-75
2022/05/21 05:40:14;;;;;;;22.83;7.55;;;14.80;99.90;;;;;;5055811;28;20021;-74
2022/05/21 05:42:40;;;;;;;23.23;7.10;;;14.80;99.90;;;;;;5055806;28;20083;-75
2022/05/21 05:45:07;;;;;;;21.85;7.10;;;14.80;99.90;;;;;;5055470;28;20041;-74
2022/05/21 05:47:33;;;;;;;26.38;8.07;;;14.80;99.90;;;;;;5055424;28;20045;-74
2022/05/21 05:49:59;;;;;;;22.58;6.15;;;14.90;99.90;;;;;;5055598;28;20468;-75
2022/05/21 05:52:26;;;;;;;20.60;6.60;;;14.90;99.90;;;;;;5055876;28;20108;-74
2022/05/21 05:54:52;;;;;;;19.20;5.60;;;14.90;99.90;;;;;;5055509;28;20029;-74
2022/05/21 05:57:18;;;;;;;18.80;5.63;;;14.90;99.90;;;;;;5055591;28;20021;-74
2022/05/21 05:59:50;;;;;;;23.63;5.38;;;15.00;99.90;;;;;;5055654;28;20407;-74
2022/05/21 06:05:16;;;;;;;19.52;5.25;;;15.00;99.90;;;;;;5055318;28;20508;-74
2022/05/21 06:07:49;;;;;;;17.25;3.90;;;15.10;99.90;;;;;;5055165;28;20029;-74
2022/05/21 06:10:18;;;;;;;20.42;4.25;;;15.10;99.90;;;;;;5055736;28;20071;-74
2022/05/21 06:12:44;;;;;;;20.40;4.70;;;15.10;99.80;;;;;;5055393;28;20029;-74
2022/05/21 06:15:11;;;;;;;20.88;3.65;;;15.10;99.20;;;;;;5055377;28;20017;-74
2022/05/21 06:17:39;;;;;;;20.38;4.40;;;15.10;99.20;;;;;;5055271;28;20112;-74
2022/05/21 06:20:16;;;;;;;19.83;4.07;;;15.20;99.20;;;;;;5055275;28;20024;-74
2022/05/21 06:22:42;;;;;;;14.50;3.95;;;15.20;99.20;;;;;;5055118;28;20029;-74
2022/05/21 06:25:09;;;;;;;16.23;3.10;;;15.20;99.20;;;;;;5054021;28;20037;-74
2022/05/21 06:27:35;;;;;;;17.08;3.53;;;15.30;98.70;;;;;;5054975;28;20025;-74
2022/05/21 06:30:00;;;;;;;15.50;3.28;;;15.30;98.60;;;;;;5055037;28;20025;-74
2022/05/21 06:32:26;;;;;;;18.10;3.38;;;15.30;98.40;;;;;;5055079;28;20017;-74
2022/05/21 06:34:52;;;;;;;14.15;3.17;;;15.30;98.40;;;;;;5054910;28;20021;-74
2022/05/21 06:37:17;;;;;;;18.15;2.88;;;15.30;98.30;;;;;;5055024;28;20036;-74
2022/05/21 06:39:43;;;;;;;19.10;3.70;;;15.40;98.50;;;;;;5054357;28;20026;-74
2022/05/21 06:42:10;;;;;;;18.40;3.53;;;15.40;98.20;;;;;;5054673;28;20017;-74
2022/05/21 06:44:36;;;;;;;13.00;2.83;;;15.50;98.20;;;;;;5054651;28;20389;-74
2022/05/21 06:47:01;;;;;;;14.40;2.83;;;15.50;97.80;;;;;;5053186;28;20045;-74
2022/05/21 06:49:27;;;;;;;20.73;3.95;;;15.50;97.80;;;;;;5054799;28;20033;-74
2022/05/21 06:51:54;;;;;;;18.52;2.88;;;15.50;97.60;;;;;;5054634;28;20475;-74
2022/05/21 06:54:21;;;;;;;14.43;2.47;;;15.50;97.30;;;;;;5054167;28;20021;-74
2022/05/21 06:56:47;;;;;;;13.85;2.40;;;15.50;96.80;;;;;;5054574;28;20051;-74
2022/05/21 06:59:13;;;;;;;13.98;2.17;;;15.60;96.80;;;;;;5054289;28;20131;-74
2022/05/21 07:01:40;;;;;;;18.08;2.83;;;15.60;96.80;;;;;;5054255;28;20028;-74
2022/05/21 07:04:05;;;;;;;12.02;2.35;;;15.60;96.60;;;;;;5054377;28;20041;-74
2022/05/21 07:09:15;;;;;;;19.35;2.97;;;15.70;96.60;;;;;;5054436;28;20043;-75
2022/05/21 07:11:41;;;;;;;14.85;2.65;;;15.70;96.40;;;;;;5053997;28;20021;-75
2022/05/21 07:14:06;;;;;;;13.00;2.20;;;15.70;96.40;;;;;;5053991;28;20056;-74
2022/05/21 07:16:32;;;;;;;17.00;2.38;;;15.70;96.10;;;;;;5054158;28;20029;-74
2022/05/21 07:18:58;;;;;;;14.60;2.22;;;15.70;95.80;;;;;;5053785;28;20032;-74
2022/05/21 07:21:24;;;;;;;14.93;2.17;;;15.70;95.60;;;;;;5053829;28;20111;-74
2022/05/21 07:23:49;;;;;;;15.45;1.90;;;15.70;95.40;;;;;;5053448;28;20021;-74
2022/05/21 07:26:17;;;;;;;10.38;2.05;;;15.70;95.50;;;;;;5054143;28;20052;-74
2022/05/21 07:28:42;;;;;;;11.43;2.30;;;15.70;95.20;;;;;;5053770;28;20112;-74
2022/05/21 07:31:08;;;;;;;12.48;1.73;;;15.80;95.30;;;;;;5054039;28;20117;-75
2022/05/21 07:33:34;;;;;;;17.15;2.70;;;15.90;95.30;;;;;;5053809;28;20104;-75
2022/05/21 07:35:59;;;;;;;13.45;1.80;;;15.90;95.50;;;;;;5053813;28;20021;-75
2022/05/21 07:38:25;;;;;;;15.10;1.73;;;16.00;95.10;;;;;;5053663;28;20443;-75
2022/05/21 07:40:52;;;;;;;17.67;2.90;;;16.10;94.50;;;;;;5053474;28;20108;-74
2022/05/21 07:43:30;;;;;;;11.07;1.45;;;16.20;94.60;;;;;;5053731;28;20035;-74
2022/05/21 07:45:57;;;;;;;14.07;2.22;;;16.30;94.50;;;;;;5053311;28;20480;-75
2022/05/21 07:48:24;;;;;;;17.98;2.00;;;16.40;94.80;;;;;;5053058;28;20140;-74
2022/05/21 07:50:59;;;;;;;12.10;1.60;;;16.50;94.40;;;;;;5053392;28;20025;-74
2022/05/21 07:53:35;;;;;;;13.27;1.92;;;16.60;93.90;;;;;;5053602;28;20033;-74
2022/05/21 07:56:01;;;;;;;13.50;1.98;;;16.70;93.80;;;;;;5053515;28;20074;-75
2022/05/21 07:58:31;;;;;;;12.20;2.17;;;16.70;93.90;;;;;;5053142;28;20407;-74
2022/05/21 08:00:56;;;;;;;14.13;1.98;;;16.70;94.20;;;;;;5053192;28;20029;-74
2022/05/21 08:03:23;;;;;;;10.02;1.77;;;16.70;94.40;;;;;;5053149;28;20027;-74
2022/05/21 08:05:50;;;;;;;17.17;2.38;;;16.80;94.60;;;;;;5053389;28;20037;-75
2022/05/21 08:08:16;;;;;;;13.82;1.83;;;16.80;93.90;;;;;;5053025;28;20519;-75
2022/05/21 08:10:44;;;;;;;11.20;2.20;;;16.70;93.30;;;;;;5053105;28;20389;-74
2022/05/21 08:13:11;;;;;;;16.33;2.08;;;16.70;93.60;;;;;;5053106;28;20376;-74
2022/05/21 08:15:37;;;;;;;13.65;2.53;;;16.60;93.60;;;;;;5052919;28;20036;-74
2022/05/21 08:18:04;;;;;;;13.43;2.00;;;16.60;94.10;;;;;;5052831;28;20064;-74
2022/05/21 08:20:31;;;;;;;15.98;1.90;;;16.50;94.10;;;;;;5052770;28;20033;-75
2022/05/21 08:28:24;;;;;;;12.00;1.88;;;16.40;93.30;;;;;;5053005;28;20032;-74
2022/05/21 08:30:50;;;;;;;10.35;2.25;;;16.40;93.50;;;;;;5052733;28;20406;-74
2022/05/21 08:33:18;;;;;;;15.70;2.20;;;16.50;93.70;;;;;;5052902;28;20056;-74
2022/05/21 08:35:43;;;;;;;9.10;1.88;;;16.60;93.70;;;;;;5053014;28;20033;-74
2022/05/21 08:38:11;;;;;;;11.27;2.13;;;16.80;93.40;;;;;;5052759;28;20025;-74
2022/05/21 08:40:55;;;;;;;12.98;2.40;;;16.90;92.90;;;;;;5053024;28;20029;-74
2022/05/21 08:43:23;;;;;;;10.50;1.70;;;16.90;93.00;;;;;;5052998;28;20021;-74
2022/05/21 08:46:15;;;;;;;12.35;1.98;;;16.90;93.10;;;;;;5052155;28;20033;-74
2022/05/21 08:48:47;;;;;;;13.73;1.90;;;16.90;93.40;;;;;;5055725;28;20488;-75
2022/05/21 08:51:18;;;;;;;11.23;1.77;;;17.10;92.70;;;;;;5057222;28;20036;-74
2022/05/21 08:53:49;;;;;;;10.95;1.88;;;17.30;92.60;;;;;;5056591;28;20025;-75
2022/05/21 08:56:14;;;;;;;9.43;1.50;;;17.40;92.20;;;;;;5056650;28;20028;-75
2022/05/21 08:58:48;;;;;;;9.75;1.50;;;17.60;91.10;;;;;;5056534;28;20025;-75
2022/05/21 09:01:21;;;;;;;10.13;1.70;;;17.70;90.30;;;;;;5056720;28;20036;-75
2022/05/21 09:03:50;;;;;;;8.20;1.60;;;17.80;90.60;;;;;;5056133;28;20024;-75
2022/05/21 09:06:18;;;;;;;11.23;1.70;;;17.90;91.10;;;;;;5056247;28;20562;-75
2022/05/21 09:08:55;;;;;;;15.38;1.80;;;18.00;91.30;;;;;;5056203;28;20013;-74
2022/05/21 09:11:40;;;;;;;10.63;1.77;;;18.00;91.30;;;;;;5056299;28;20060;-75
2022/05/21 09:14:06;;;;;;;9.55;1.70;;;18.10;91.20;;;;;;5055357;28;20029;-75
2022/05/21 09:16:55;;;;;;;8.13;1.40;;;18.00;90.90;;;;;;5056093;28;20028;-75
2022/05/21 09:19:34;;;;;;;14.90;2.28;;;18.10;90.80;;;;;;5056282;28;20044;-75
2022/05/21 09:22:04;;;;;;;13.73;2.10;;;18.30;90.80;;;;;;5056433;28;20376;-75
2022/05/21 09:24:36;;;;;;;10.20;1.92;;;18.40;90.40;;;;;;5055762;28;20036;-74
2022/05/21 09:27:02;;;;;;;12.93;1.67;;;18.30;90.10;;;;;;5056117;28;20451;-75
2022/05/21 09:29:34;;;;;;;10.00;1.70;;;18.20;90.10;;;;;;5055927;28;20060;-75
2022/05/21 09:32:17;;;;;;;7.55;0.90;;;18.20;90.00;;;;;;5056019;28;20028;-75
2022/05/21 09:34:43;;;;;;;8.90;1.17;;;18.10;87.90;;;;;;5055750;28;20524;-75
2022/05/21 09:37:16;;;;;;;7.85;1.10;;;18.10;87.30;;;;;;5056116;28;20033;-75
2022/05/21 09:39:43;;;;;;;11.38;1.60;;;18.00;87.80;;;;;;5055896;28;20021;-75
2022/05/21 09:47:51;;;;;;;14.93;2.25;;;17.80;90.40;;;;;;5055486;28;20503;-75
2022/05/21 09:50:25;;;;;;;11.68;1.85;;;17.70;90.50;;;;;;5055822;28;20033;-75
2022/05/21 09:52:52;;;;;;;12.75;2.25;;;17.60;90.20;;;;;;5055563;28;20025;-75
2022/05/21 09:55:28;;;;;;;10.63;2.45;;;17.40;90.50;;;;;;5055440;28;20032;-75
2022/05/21 09:58:06;;;;;;;13.23;2.00;;;17.40;91.30;;;;;;5055471;28;20025;-75
2022/05/21 10:00:34;;;;;;;11.55;2.15;;;17.40;91.40;;;;;;5054530;28;20058;-75
2022/05/21 10:03:02;;;;;;;9.77;1.70;;;17.30;91.10;;;;;;5055061;28;20052;-75
2022/05/21 10:05:32;;;;;;;13.88;2.00;;;17.30;91.10;;;;;;5055125;28;20029;-75
2022/05/21 10:11:30;;;;;;;7.90;1.65;;;17.50;91.60;;;;;;5055181;28;20127;-75
2022/05/21 10:14:25;;;;;;;12.05;2.10;;;17.50;90.90;;;;;;5055443;28;20437;-75
2022/05/21 10:16:51;;;;;;;10.15;2.55;;;17.50;90.60;;;;;;5054747;28;20546;-75
2022/05/21 10:19:32;;;;;;;10.13;2.10;;;17.40;90.30;;;;;;5054978;28;20045;-75
2022/05/21 10:22:07;;;;;;;9.75;1.90;;;17.50;90.60;;;;;;5054607;28;20029;-75
2022/05/21 10:24:38;;;;;;;9.77;2.28;;;17.70;90.50;;;;;;5054757;28;20033;-75
2022/05/21 10:27:16;;;;;;;12.13;2.47;;;17.90;91.00;;;;;;5054713;28;20514;-74
2022/05/21 10:29:57;;;;;;;7.93;1.45;;;17.90;90.20;;;;;;5055074;28;20075;-74
2022/05/21 10:32:42;;;;;;;7.55;1.73;;;18.00;90.20;;;;;;5054986;28;20025;-74
2022/05/21 10:35:29;;;;;;;8.90;1.75;;;18.00;88.10;;;;;;5054663;28;20484;-74
2022/05/21 10:38:08;;;;;;;13.45;2.05;;;18.00;87.90;;;;;;5054448;28;20546;-74
2022/05/21 10:41:01;;;;;;;8.70;1.88;;;18.20;88.10;;;;;;5054772;28;20067;-74
2022/05/21 10:43:37;;;;;;;9.60;1.60;;;18.20;87.70;;;;;;5054480;28;20029;-75
2022/05/21 10:46:51;;;;;;;8.40;1.75;;;18.30;87.80;;;;;;5054240;28;20199;-74
2022/05/21 10:49:45;;;;;;;8.70;1.48;;;18.30;86.70;;;;;;5012541;28;20100;-75
2022/05/21 10:52:24;;;;;;;12.65;1.63;;;18.30;86.50;;;;;;5053244;28;20041;-74
2022/05/21 10:55:23;;;;;;;11.02;2.10;;;18.30;86.30;;;;;;5054227;28;20380;-74
2022/05/21 10:58:00;;;;;;;10.05;2.03;;;18.40;86.60;;;;;;5054393;28;20025;-74
2022/05/21 11:00:36;;;;;;;9.45;1.92;;;18.40;87.10;;;;;;5054019;28;20021;-74
2022/05/21 11:03:26;;;;;;;7.68;1.17;;;18.50;87.00;;;;;;5054212;28;20074;-74
2022/05/21 11:05:55;;;;;;;8.48;1.20;;;18.50;86.50;;;;;;5054003;28;20040;-74
2022/05/21 11:08:43;;;;;;;10.30;1.90;;;18.60;87.10;;;;;;5053921;28;20024;-74
2022/05/21 11:11:13;;;;;;;8.15;1.40;;;18.60;86.20;;;;;;5053664;28;20025;-74
2022/05/21 11:13:55;;;;;;;8.00;1.55;;;18.50;86.30;;;;;;5054114;28;20024;-75
2022/05/21 11:16:39;;;;;;;10.38;1.73;;;18.50;86.50;;;;;;5054184;28;20037;-74
2022/05/21 11:19:26;;;;;;;12.27;2.45;;;18.40;86.20;;;;;;5053576;28;20059;-74
2022/05/21 11:21:58;;;;;;;9.15;1.83;;;18.30;87.50;;;;;;5053552;28;20499;-74
2022/05/21 11:24:35;;;;;;;8.32;1.63;;;18.30;87.20;;;;;;5053825;28;20047;-74
2022/05/21 11:27:12;;;;;;;8.02;1.40;;;18.30;86.30;;;;;;5053672;28;20432;-74
2022/05/21 11:29:54;;;;;;;11.63;1.83;;;18.20;86.80;;;;;;5053477;28;20454;-73
2022/05/21 11:38:19;;;;;;;12.07;2.10;;;18.30;86.70;;;;;;5053572;28;20028;-75
2022/05/21 11:41:30;;;;;;;13.98;2.60;;;18.40;86.50;;;;;;5053725;28;20032;-75
2022/05/21 11:47:12;;;;;;;9.23;2.03;;;18.60;86.90;;;;;;5053424;28;20718;-75
2022/05/21 11:49:43;;;;;;;7.10;1.90;;;18.80;85.70;;;;;;5053305;28;20044;-75
2022/05/21 11:52:27;;;;;;;9.98;1.73;;;18.90;84.70;;;;;;5052993;28;20021;-75
2022/05/21 11:55:12;;;;;;;10.60;1.55;;;19.10;83.80;;;;;;5053418;28;20068;-75
2022/05/21 11:57:52;;;;;;;8.57;1.60;;;19.20;83.50;;;;;;5053338;28;20407;-75
2022/05/21 12:00:18;;;;;;;9.57;1.50;;;19.40;82.50;;;;;;5053296;28;20032;-76
2022/05/21 12:02:59;;;;;;;7.72;1.35;;;19.40;81.80;;;;;;5053465;28;20032;-75
2022/05/21 12:05:34;;;;;;;11.77;1.90;;;19.60;80.90;;;;;;5053336;28;20037;-75
2022/05/21 12:08:21;;;;;;;7.70;1.60;;;19.70;80.10;;;;;;5053116;28;20077;-75
2022/05/21 12:11:34;;;;;;;8.88;1.52;;;19.70;80.00;;;;;;5053334;28;20033;-75
2022/05/21 12:14:13;;;;;;;15.50;2.10;;;19.80;81.00;;;;;;5052968;28;20032;-75
2022/05/21 12:16:42;;;;;;;9.55;1.48;;;19.90;79.60;;;;;;5053061;28;20048;-75
2022/05/21 12:19:09;;;;;;;7.45;1.38;;;19.90;79.90;;;;;;5052949;28;20095;-75
2022/05/21 12:21:39;;;;;;;10.15;1.85;;;20.10;79.80;;;;;;5052088;28;20047;-75
2022/05/21 12:24:09;;;;;;;8.13;1.33;;;20.20;76.80;;;;;;5052438;28;20032;-75
2022/05/21 12:26:37;;;;;;;10.07;1.40;;;20.20;76.30;;;;;;5052994;28;20025;-75
2022/05/21 12:29:22;;;;;;;8.73;1.38;;;20.10;78.10;;;;;;5052896;28;20499;-75
2022/05/21 12:31:56;;;;;;;8.45;1.42;;;20.20;77.50;;;;;;5052545;28;20025;-75
2022/05/21 12:34:37;;;;;;;8.25;1.27;;;20.00;77.10;;;;;;5053066;28;20100;-75
2022/05/21 12:37:15;;;;;;;8.50;1.00;;;20.10;77.40;;;;;;5052774;28;20474;-75
2022/05/21 12:39:53;;;;;;;6.00;1.10;;;20.10;78.60;;;;;;5052718;28;20472;-75
2022/05/21 12:42:47;;;;;;;7.32;1.02;;;20.00;76.30;;;;;;5052730;28;20444;-75
2022/05/21 12:45:28;;;;;;;9.40;1.20;;;19.90;77.70;;;;;;5052759;28;20041;-75
2022/05/21 12:48:17;;;;;;;7.95;1.30;;;20.10;78.70;;;;;;5052631;28;20041;-75
2022/05/21 12:50:57;;;;;;;11.02;1.52;;;20.10;78.80;;;;;;5052373;28;20090;-75
2022/05/21 12:53:45;;;;;;;9.88;1.55;;;20.10;78.30;;;;;;5052947;28;20044;-75
2022/05/21 12:56:24;;;;;;;7.20;1.10;;;20.10;77.50;;;;;;5052693;28;20029;-75
2022/05/21 12:59:11;;;;;;;12.80;1.92;;;20.10;77.80;;;;;;5052493;28;20385;-75
2022/05/21 13:01:51;;;;;;;12.05;1.40;;;20.10;77.20;;;;;;5052459;28;20032;-75
2022/05/21 13:04:24;;;;;;;10.95;1.63;;;20.00;77.80;;;;;;5052452;28;20119;-75
2022/05/21 13:07:00;;;;;;;8.68;1.40;;;19.90;78.30;;;;;;5052462;28;20033;-75
2022/05/21 13:09:26;;;;;;;9.52;1.40;;;19.70;78.80;;;;;;5052753;28;20377;-75
2022/05/21 13:11:53;;;;;;;7.90;1.52;;;19.60;78.50;;;;;;5052651;28;20113;-75
2022/05/21 13:14:33;;;;;;;7.13;1.17;;;19.60;78.70;;;;;;5052313;28;20044;-75
2022/05/21 13:17:00;;;;;;;9.15;1.30;;;19.60;79.80;;;;;;5052339;28;20021;-75
2022/05/21 13:19:41;;;;;;;12.02;1.60;;;19.70;79.00;;;;;;5052455;28;20025;-76
2022/05/21 13:22:18;;;;;;;10.30;1.58;;;19.70;78.00;;;;;;5052377;28;20106;-75
2022/05/21 13:24:54;;;;;;;8.90;1.60;;;19.70;78.10;;;;;;5052253;28;20124;-75
2022/05/21 13:27:21;;;;;;;8.73;1.52;;;19.70;78.70;;;;;;5052707;28;20028;-75
2022/05/21 13:29:50;;;;;;;8.85;1.08;;;19.70;80.30;;;;;;5052471;28;20017;-75